Time;durP1;ratioP1;P1;durP2;ratioP2;P2;SDS_P1;SDS_P2;PMS_P1;PMS_P2;Temp;Humidity;BMP_temperature;BMP_pressure;BME280_temperature;BME280_humidity;BME280_pressure;Samples;Min_cycle;Max_cycle;Signal;HPM_P1;HPM_P2
2021/08/09 00:00:31;;;;;;;2.30;1.00;;;14.50;99.90;;;;;;5039951;28;20112;-87
2021/08/09 00:02:56;;;;;;;4.15;1.25;;;14.50;99.90;;;;;;5040261;28;20048;-87
2021/08/09 00:05:22;;;;;;;4.30;1.00;;;14.50;99.90;;;;;;5057794;28;20025;-87
2021/08/09 00:07:48;;;;;;;6.07;1.30;;;14.50;99.90;;;;;;5039328;28;20029;-87
2021/08/09 00:10:14;;;;;;;3.13;1.10;;;14.50;99.90;;;;;;5040058;28;20082;-87
2021/08/09 00:12:40;;;;;;;4.00;1.10;;;14.50;99.90;;;;;;5039784;28;20028;-87
2021/08/09 00:15:06;;;;;;;7.60;1.20;;;14.50;99.90;;;;;;5039688;28;20052;-87
2021/08/09 00:17:32;;;;;;;4.75;1.27;;;14.40;99.90;;;;;;5039453;28;20017;-87
2021/08/09 00:19:57;;;;;;;3.60;1.20;;;14.40;99.90;;;;;;5039734;28;20017;-86
2021/08/09 00:22:23;;;;;;;3.33;1.02;;;14.50;99.90;;;;;;5038908;28;20024;-87
2021/08/09 00:24:49;;;;;;;1.92;1.10;;;14.50;99.90;;;;;;5057338;28;20040;-86
2021/08/09 00:27:14;;;;;;;3.92;1.55;;;14.50;99.90;;;;;;5039574;28;20115;-87
2021/08/09 00:29:40;;;;;;;4.13;1.30;;;14.50;99.90;;;;;;5057275;28;20025;-87
2021/08/09 00:32:06;;;;;;;2.45;1.13;;;14.60;99.90;;;;;;5039419;28;20025;-87
2021/08/09 00:34:33;;;;;;;3.65;1.10;;;14.80;99.90;;;;;;5039417;28;20029;-87
2021/08/09 00:36:59;;;;;;;2.83;1.05;;;15.00;99.90;;;;;;5039357;28;20428;-87
2021/08/09 00:39:24;;;;;;;5.88;1.25;;;14.90;99.90;;;;;;5035950;28;20030;-87
2021/08/09 00:41:50;;;;;;;7.63;1.42;;;14.60;99.90;;;;;;5019711;28;20124;-87
2021/08/09 00:44:16;;;;;;;2.80;1.08;;;14.50;99.90;;;;;;5019381;28;20030;-87
2021/08/09 00:46:42;;;;;;;7.32;1.10;;;14.50;99.90;;;;;;5019408;28;20087;-87
2021/08/09 00:49:07;;;;;;;5.82;1.17;;;14.80;99.90;;;;;;5019316;28;20028;-87
2021/08/09 00:51:33;;;;;;;2.25;1.08;;;15.10;99.90;;;;;;5019272;28;20025;-87
2021/08/09 00:53:59;;;;;;;5.30;1.05;;;14.90;99.90;;;;;;5018840;28;20022;-87
2021/08/09 00:56:25;;;;;;;7.85;1.38;;;15.00;99.90;;;;;;5036399;28;20473;-87
2021/08/09 00:58:53;;;;;;;3.83;1.20;;;14.80;99.90;;;;;;5019890;28;20022;-87
2021/08/09 01:01:19;;;;;;;4.93;1.17;;;14.80;99.90;;;;;;5019873;28;20500;-87
2021/08/09 01:03:45;;;;;;;4.97;1.25;;;14.90;99.90;;;;;;5020118;28;20021;-86
2021/08/09 01:06:11;;;;;;;7.90;1.60;;;14.90;99.90;;;;;;5019618;28;20123;-87
2021/08/09 01:08:43;;;;;;;4.78;1.10;;;15.00;99.90;;;;;;5037502;28;20033;-87
2021/08/09 01:11:12;;;;;;;2.08;0.95;;;15.00;99.90;;;;;;5019182;28;20029;-87
2021/08/09 01:13:43;;;;;;;2.75;1.00;;;14.90;99.90;;;;;;5018518;28;20139;-87
2021/08/09 01:16:12;;;;;;;3.35;1.17;;;14.90;99.90;;;;;;5035797;28;20022;-86
2021/08/09 01:18:40;;;;;;;3.70;0.98;;;15.10;99.90;;;;;;5018761;28;20112;-87
2021/08/09 01:21:07;;;;;;;5.18;1.20;;;14.80;99.90;;;;;;5018729;28;20488;-87
2021/08/09 01:23:42;;;;;;;2.67;1.00;;;14.80;99.90;;;;;;5018883;28;20028;-87
2021/08/09 01:26:16;;;;;;;4.05;1.30;;;15.00;99.90;;;;;;5018654;28;20029;-86
2021/08/09 01:28:43;;;;;;;3.75;1.23;;;15.10;99.90;;;;;;5018620;28;20366;-87
2021/08/09 01:31:12;;;;;;;12.57;1.10;;;14.90;99.90;;;;;;5036747;28;20029;-87
2021/08/09 01:33:39;;;;;;;8.27;1.67;;;15.00;99.90;;;;;;5018553;28;20480;-87
2021/08/09 01:36:06;;;;;;;2.00;0.90;;;15.10;99.90;;;;;;5018405;28;20083;-87
2021/08/09 01:38:35;;;;;;;3.85;1.10;;;15.00;99.90;;;;;;5017722;28;20025;-87
2021/08/09 01:41:01;;;;;;;3.28;1.00;;;14.90;99.90;;;;;;5032777;28;20045;-87
2021/08/09 01:43:29;;;;;;;4.63;1.10;;;15.00;99.90;;;;;;5038172;28;20028;-87
2021/08/09 01:45:57;;;;;;;5.43;1.30;;;15.20;99.90;;;;;;5037796;28;20045;-87
2021/08/09 01:48:24;;;;;;;3.47;1.20;;;15.20;99.90;;;;;;5038090;28;20039;-87
2021/08/09 01:50:50;;;;;;;3.15;1.00;;;15.30;99.90;;;;;;5055916;28;20025;-87
2021/08/09 01:53:17;;;;;;;3.75;1.52;;;15.40;99.90;;;;;;5038367;28;20037;-86
2021/08/09 01:55:43;;;;;;;2.40;1.10;;;15.40;99.90;;;;;;5054962;28;20029;-87
2021/08/09 01:58:09;;;;;;;5.40;1.00;;;15.40;99.90;;;;;;5037604;28;20021;-87
2021/08/09 02:00:35;;;;;;;5.32;1.30;;;15.40;99.90;;;;;;5037820;28;20037;-88
2021/08/09 02:03:01;;;;;;;2.60;1.20;;;15.30;99.90;;;;;;5037878;28;20087;-87
2021/08/09 02:05:26;;;;;;;2.95;1.20;;;15.40;99.90;;;;;;5037767;28;20021;-86
2021/08/09 02:07:55;;;;;;;3.20;1.23;;;15.20;99.90;;;;;;5037270;28;20021;-87
2021/08/09 02:10:26;;;;;;;3.63;1.13;;;15.20;99.90;;;;;;5055101;28;20535;-87
2021/08/09 02:13:03;;;;;;;3.15;0.88;;;15.10;99.90;;;;;;5037409;28;20473;-87
2021/08/09 02:15:52;;;;;;;2.13;1.10;;;15.30;99.90;;;;;;5054833;28;20515;-87
2021/08/09 02:18:44;;;;;;;1.90;0.88;;;15.20;99.90;;;;;;5037379;28;20025;-87
2021/08/09 02:21:14;;;;;;;3.95;1.20;;;15.20;99.90;;;;;;5037292;28;20024;-87
2021/08/09 02:23:47;;;;;;;4.28;1.00;;;15.30;99.90;;;;;;5055144;28;20025;-86
2021/08/09 02:26:31;;;;;;;2.20;1.30;;;15.20;99.90;;;;;;5054773;28;20052;-87
2021/08/09 02:29:20;;;;;;;7.18;1.15;;;15.20;99.90;;;;;;5037119;28;20037;-87
2021/08/09 02:31:47;;;;;;;4.53;1.05;;;14.60;99.90;;;;;;5055190;28;20049;-86
2021/08/09 02:34:17;;;;;;;3.90;1.10;;;14.50;99.90;;;;;;5036921;28;20032;-86
2021/08/09 02:36:43;;;;;;;2.45;1.20;;;14.30;99.90;;;;;;5036838;28;20033;-87
2021/08/09 02:39:09;;;;;;;3.33;1.65;;;14.00;99.90;;;;;;5036664;28;20032;-86
2021/08/09 02:41:36;;;;;;;8.18;1.30;;;13.90;99.90;;;;;;5036222;28;20524;-87
2021/08/09 02:44:02;;;;;;;2.53;1.30;;;14.00;99.90;;;;;;5036924;28;20064;-87
2021/08/09 02:46:29;;;;;;;6.22;1.20;;;14.10;99.90;;;;;;5036643;28;20029;-87
2021/08/09 02:48:55;;;;;;;4.65;1.23;;;14.20;99.90;;;;;;5054635;28;20035;-87
2021/08/09 02:51:21;;;;;;;4.35;1.10;;;14.10;99.90;;;;;;5054638;28;20453;-87
2021/08/09 02:53:49;;;;;;;3.90;1.30;;;13.90;99.90;;;;;;5054543;28;20025;-87
2021/08/09 02:56:17;;;;;;;3.38;1.25;;;13.70;99.90;;;;;;5036465;28;20124;-85
2021/08/09 02:58:43;;;;;;;4.13;1.30;;;13.80;99.90;;;;;;5036384;28;20033;-87
2021/08/09 03:01:10;;;;;;;3.85;1.40;;;14.00;99.90;;;;;;5037522;28;20124;-87
2021/08/09 03:03:38;;;;;;;4.78;1.00;;;14.00;99.90;;;;;;5043711;28;20053;-87
2021/08/09 03:06:06;;;;;;;2.88;1.30;;;13.80;99.90;;;;;;5061599;28;20064;-87
2021/08/09 03:08:31;;;;;;;2.47;1.27;;;14.10;99.90;;;;;;5043841;28;20514;-87
2021/08/09 03:10:58;;;;;;;6.10;1.27;;;14.10;99.90;;;;;;5043587;28;20020;-87
2021/08/09 03:13:24;;;;;;;2.72;1.00;;;14.00;99.90;;;;;;5043584;28;20029;-86
2021/08/09 03:15:52;;;;;;;2.95;1.08;;;13.90;99.90;;;;;;5060754;28;20053;-87
2021/08/09 03:18:17;;;;;;;5.85;1.60;;;14.00;99.90;;;;;;5062635;28;20053;-86
2021/08/09 03:20:43;;;;;;;3.33;1.15;;;13.90;99.90;;;;;;5044200;28;20028;-87
2021/08/09 03:23:09;;;;;;;3.67;1.30;;;13.90;99.90;;;;;;5043914;28;20112;-87
2021/08/09 03:25:37;;;;;;;6.15;1.00;;;14.00;99.90;;;;;;5043320;28;20119;-87
2021/08/09 03:28:04;;;;;;;3.38;1.40;;;13.90;99.90;;;;;;5042991;28;20029;-87
2021/08/09 03:30:30;;;;;;;3.05;1.08;;;13.80;99.90;;;;;;5061215;28;20107;-87
2021/08/09 03:32:56;;;;;;;2.47;1.20;;;13.80;99.90;;;;;;5042467;28;20079;-87
2021/08/09 03:35:22;;;;;;;6.10;1.23;;;13.60;99.90;;;;;;5060892;28;20032;-87
2021/08/09 03:37:48;;;;;;;7.03;1.20;;;13.40;99.90;;;;;;5043113;28;20021;-86
2021/08/09 03:40:14;;;;;;;3.05;1.33;;;13.40;99.90;;;;;;5042801;28;20045;-87
2021/08/09 03:42:40;;;;;;;6.78;1.63;;;13.30;99.90;;;;;;5042997;28;20017;-87
2021/08/09 03:45:06;;;;;;;5.75;1.20;;;13.50;99.90;;;;;;5043131;28;20039;-87
2021/08/09 03:47:33;;;;;;;2.13;0.90;;;13.10;99.90;;;;;;5042523;28;20526;-86
2021/08/09 03:50:00;;;;;;;3.85;1.20;;;13.50;99.90;;;;;;5042395;28;20493;-87
2021/08/09 03:52:26;;;;;;;4.70;1.13;;;13.70;99.90;;;;;;5043255;28;20025;-87
2021/08/09 03:54:51;;;;;;;4.60;1.30;;;13.50;99.90;;;;;;5026506;28;20033;-87
2021/08/09 03:57:17;;;;;;;5.72;1.50;;;13.50;99.90;;;;;;5043402;28;20021;-87
2021/08/09 03:59:43;;;;;;;4.25;1.48;;;13.50;99.90;;;;;;5043829;28;20017;-87
2021/08/09 04:02:14;;;;;;;4.13;1.17;;;13.70;99.90;;;;;;5043310;28;20021;-87
2021/08/09 04:04:40;;;;;;;5.13;1.10;;;14.10;99.90;;;;;;5043418;28;20028;-87
2021/08/09 04:07:05;;;;;;;3.17;1.08;;;14.00;99.90;;;;;;5042475;28;20488;-87
2021/08/09 04:09:31;;;;;;;5.18;1.25;;;14.10;99.90;;;;;;5043180;28;20028;-87
2021/08/09 04:11:57;;;;;;;3.75;1.17;;;13.90;99.90;;;;;;5043241;28;20031;-87
2021/08/09 04:14:22;;;;;;;3.58;0.82;;;13.70;99.90;;;;;;5038911;28;20028;-87
2021/08/09 04:16:48;;;;;;;3.13;1.10;;;13.50;99.90;;;;;;5039905;28;20025;-87
2021/08/09 04:19:14;;;;;;;4.47;1.20;;;13.60;99.90;;;;;;5039541;28;20021;-87
2021/08/09 04:21:40;;;;;;;5.30;1.30;;;13.50;99.90;;;;;;5039243;28;20477;-87
2021/08/09 04:24:05;;;;;;;3.10;0.88;;;13.50;99.90;;;;;;5057298;28;20112;-87
2021/08/09 04:26:31;;;;;;;7.50;1.67;;;13.70;99.90;;;;;;5039610;28;20052;-87
2021/08/09 04:28:57;;;;;;;4.95;1.02;;;13.70;99.90;;;;;;5039855;28;20032;-87
2021/08/09 04:31:22;;;;;;;4.10;1.08;;;13.70;99.90;;;;;;5039647;28;20025;-86
2021/08/09 04:33:50;;;;;;;4.32;1.23;;;13.30;99.90;;;;;;5039224;28;20032;-87
2021/08/09 04:36:16;;;;;;;2.05;1.00;;;13.30;99.90;;;;;;5056919;28;20396;-86
2021/08/09 04:38:42;;;;;;;3.65;1.40;;;13.60;99.90;;;;;;5056769;28;20533;-86
2021/08/09 04:41:10;;;;;;;4.85;1.33;;;13.60;99.90;;;;;;5039027;28;20049;-87
2021/08/09 04:43:37;;;;;;;3.92;1.20;;;13.50;99.90;;;;;;5039314;28;20025;-86
2021/08/09 04:46:04;;;;;;;5.60;1.00;;;13.70;99.90;;;;;;5039246;28;20029;-87
2021/08/09 04:48:30;;;;;;;3.67;1.20;;;13.90;99.90;;;;;;5039049;28;20135;-87
2021/08/09 04:50:55;;;;;;;2.53;1.00;;;13.80;99.90;;;;;;5039355;28;20120;-87
2021/08/09 04:53:21;;;;;;;4.25;0.90;;;13.60;99.90;;;;;;5038847;28;20032;-86
2021/08/09 04:55:47;;;;;;;8.82;1.48;;;13.40;99.90;;;;;;5038625;28;20025;-87
2021/08/09 04:58:13;;;;;;;5.82;1.48;;;13.30;99.90;;;;;;5038964;28;20017;-87
2021/08/09 05:00:38;;;;;;;4.18;1.20;;;13.20;99.90;;;;;;5039082;28;20031;-87
2021/08/09 05:03:04;;;;;;;4.07;1.17;;;13.20;99.90;;;;;;5039415;28;20071;-87
2021/08/09 05:05:30;;;;;;;2.78;1.00;;;13.40;99.90;;;;;;5038143;28;20075;-87
2021/08/09 05:07:56;;;;;;;2.97;0.88;;;13.30;99.90;;;;;;5037257;28;20035;-87
2021/08/09 05:10:24;;;;;;;3.03;0.90;;;13.40;99.90;;;;;;5037243;28;20459;-87
2021/08/09 05:12:49;;;;;;;2.08;0.90;;;13.50;99.90;;;;;;5037102;28;20036;-87
2021/08/09 05:15:15;;;;;;;4.38;0.90;;;13.40;99.90;;;;;;5037091;28;20435;-87
2021/08/09 05:17:41;;;;;;;3.45;1.15;;;13.60;99.90;;;;;;5037043;28;20017;-87
2021/08/09 05:20:07;;;;;;;5.28;1.27;;;13.90;99.90;;;;;;5036946;28;20071;-87
2021/08/09 05:22:34;;;;;;;2.45;0.90;;;14.20;99.90;;;;;;5036918;28;20397;-87
2021/08/09 05:25:03;;;;;;;5.22;1.20;;;14.20;99.90;;;;;;5036646;28;20053;-86
2021/08/09 05:27:28;;;;;;;3.10;1.20;;;14.40;99.90;;;;;;5037046;28;20385;-87
2021/08/09 05:29:54;;;;;;;2.50;1.05;;;14.50;99.90;;;;;;5037286;28;20032;-87
2021/08/09 05:32:20;;;;;;;2.88;1.02;;;14.60;99.90;;;;;;5037136;28;20036;-87
2021/08/09 05:34:46;;;;;;;2.90;1.00;;;14.50;99.90;;;;;;5054750;28;20104;-87
2021/08/09 05:37:15;;;;;;;5.75;1.23;;;14.40;99.90;;;;;;5036616;28;20021;-87
2021/08/09 05:39:41;;;;;;;5.57;1.35;;;14.30;99.90;;;;;;5036433;28;20126;-87
2021/08/09 05:42:08;;;;;;;3.40;1.40;;;14.30;99.90;;;;;;5036579;28;20063;-87
2021/08/09 05:44:33;;;;;;;4.30;1.10;;;14.30;99.90;;;;;;5036513;28;20017;-87
2021/08/09 05:46:59;;;;;;;3.92;1.30;;;14.50;99.90;;;;;;5036381;28;20031;-87
2021/08/09 05:49:25;;;;;;;3.60;1.20;;;14.60;99.90;;;;;;5036469;28;20071;-87
2021/08/09 05:51:51;;;;;;;2.70;0.80;;;14.60;99.90;;;;;;5054228;28;20018;-87
2021/08/09 05:54:16;;;;;;;4.75;1.58;;;14.80;99.90;;;;;;5036335;28;20070;-87
2021/08/09 05:56:42;;;;;;;7.90;1.40;;;15.00;99.90;;;;;;5054379;28;20029;-87
2021/08/09 05:59:08;;;;;;;3.78;1.42;;;15.10;99.90;;;;;;5036096;28;20021;-87
2021/08/09 06:01:34;;;;;;;4.00;1.13;;;15.20;99.90;;;;;;5036403;28;20021;-87
2021/08/09 06:03:59;;;;;;;3.80;1.40;;;15.30;99.90;;;;;;5054002;28;20484;-87
2021/08/09 06:06:25;;;;;;;4.03;1.25;;;15.30;99.90;;;;;;5036080;28;20119;-88
2021/08/09 06:08:51;;;;;;;6.68;1.30;;;15.50;99.90;;;;;;5035964;28;20025;-87
2021/08/09 06:11:17;;;;;;;1.77;1.00;;;15.50;99.90;;;;;;5036628;28;20025;-87
2021/08/09 06:13:43;;;;;;;2.80;1.10;;;15.50;99.90;;;;;;5036054;28;20461;-87
2021/08/09 06:16:08;;;;;;;4.25;1.33;;;15.50;99.90;;;;;;5035960;28;20437;-87
2021/08/09 06:18:35;;;;;;;3.63;1.13;;;15.60;99.90;;;;;;5035991;28;20175;-87
2021/08/09 06:21:02;;;;;;;2.63;1.05;;;15.50;99.90;;;;;;5036753;28;20111;-87
2021/08/09 06:23:28;;;;;;;5.38;1.23;;;15.50;99.90;;;;;;5035809;28;20032;-87
2021/08/09 06:25:54;;;;;;;4.63;1.23;;;15.40;99.90;;;;;;5035821;28;20025;-87
2021/08/09 06:28:21;;;;;;;2.53;1.00;;;15.50;99.90;;;;;;5053563;28;20025;-87
2021/08/09 06:30:47;;;;;;;4.75;1.30;;;15.60;99.90;;;;;;5035626;28;20489;-87
2021/08/09 06:33:13;;;;;;;4.03;1.15;;;15.60;99.90;;;;;;5035701;28;20025;-87
2021/08/09 06:35:38;;;;;;;5.60;1.05;;;15.80;99.90;;;;;;5035368;28;20044;-87
2021/08/09 06:38:06;;;;;;;7.68;1.25;;;15.90;99.90;;;;;;5035002;28;20031;-87
2021/08/09 06:40:32;;;;;;;2.67;1.00;;;16.10;99.90;;;;;;5035449;28;20060;-89
2021/08/09 06:42:58;;;;;;;1.88;1.00;;;16.20;99.90;;;;;;5035431;28;20035;-88
2021/08/09 06:45:24;;;;;;;5.00;1.20;;;16.20;99.90;;;;;;5035464;28;20112;-88
2021/08/09 06:47:49;;;;;;;4.07;1.10;;;16.30;99.90;;;;;;5035606;28;20435;-88
2021/08/09 06:50:15;;;;;;;2.80;1.15;;;16.20;99.90;;;;;;5035404;28;20431;-88
2021/08/09 06:52:41;;;;;;;4.97;1.33;;;16.30;99.90;;;;;;5035403;28;20025;-88
2021/08/09 06:55:07;;;;;;;8.38;1.30;;;16.30;99.90;;;;;;5053201;28;20079;-88
2021/08/09 06:57:33;;;;;;;3.30;1.15;;;16.20;99.90;;;;;;5035398;28;20051;-89
2021/08/09 06:59:59;;;;;;;11.60;2.05;;;16.30;99.90;;;;;;5035369;28;20021;-89
2021/08/09 07:02:25;;;;;;;7.95;1.20;;;16.30;99.90;;;;;;5035636;28;20472;-89
2021/08/09 07:04:51;;;;;;;4.13;1.40;;;16.40;99.90;;;;;;5035097;28;20021;-88
2021/08/09 07:07:17;;;;;;;6.15;1.38;;;16.50;99.90;;;;;;5035209;28;20029;-88
2021/08/09 07:09:42;;;;;;;4.07;1.20;;;16.50;99.90;;;;;;5035133;28;20469;-88
2021/08/09 07:12:09;;;;;;;3.67;1.23;;;16.70;99.90;;;;;;5035119;28;20025;-87
2021/08/09 07:14:36;;;;;;;3.05;1.13;;;16.60;99.90;;;;;;5035006;28;20473;-88
2021/08/09 07:17:04;;;;;;;2.90;1.13;;;16.70;99.90;;;;;;5035244;28;20451;-87
2021/08/09 07:19:30;;;;;;;4.10;1.33;;;16.80;99.90;;;;;;5035028;28;20163;-88
2021/08/09 07:21:55;;;;;;;6.30;1.10;;;16.80;99.90;;;;;;5053111;28;20025;-87
2021/08/09 07:24:21;;;;;;;2.67;1.00;;;16.70;99.90;;;;;;5035078;28;20021;-88
2021/08/09 07:26:47;;;;;;;7.22;1.35;;;16.90;99.90;;;;;;5035348;28;20032;-88
2021/08/09 07:29:12;;;;;;;3.25;1.00;;;17.00;99.90;;;;;;5034883;28;20143;-89
2021/08/09 07:31:38;;;;;;;3.83;1.00;;;17.00;99.90;;;;;;5036969;28;20028;-88
2021/08/09 07:34:04;;;;;;;4.47;1.13;;;17.00;99.90;;;;;;5037382;28;20155;-88
2021/08/09 07:36:29;;;;;;;3.28;1.00;;;17.30;99.90;;;;;;5036281;28;20032;-88
2021/08/09 07:38:55;;;;;;;4.90;1.08;;;17.60;99.90;;;;;;5035247;28;20432;-88
2021/08/09 07:41:21;;;;;;;6.43;1.20;;;17.80;99.90;;;;;;5034661;28;20045;-88
2021/08/09 07:43:48;;;;;;;3.90;1.05;;;18.00;99.90;;;;;;5034946;28;20104;-88
2021/08/09 07:46:15;;;;;;;2.55;0.90;;;18.00;99.90;;;;;;5034839;28;20107;-88
2021/08/09 07:48:40;;;;;;;3.67;1.10;;;18.00;99.90;;;;;;5037115;28;20396;-88
2021/08/09 07:51:06;;;;;;;4.95;0.80;;;17.90;99.90;;;;;;5038778;28;20116;-87
2021/08/09 07:53:32;;;;;;;3.33;1.20;;;17.90;99.90;;;;;;5056540;28;20025;-89
2021/08/09 07:55:58;;;;;;;2.40;0.90;;;18.00;99.90;;;;;;5038460;28;20100;-88
2021/08/09 07:58:23;;;;;;;4.72;0.93;;;18.10;99.90;;;;;;5038481;28;20551;-88
2021/08/09 08:00:51;;;;;;;2.63;1.10;;;18.30;99.90;;;;;;5056552;28;20380;-89
2021/08/09 08:03:17;;;;;;;4.47;1.00;;;18.10;99.90;;;;;;5038470;28;20028;-89
2021/08/09 08:05:43;;;;;;;4.43;1.00;;;18.20;99.90;;;;;;5038362;28;20029;-89
2021/08/09 08:08:10;;;;;;;3.03;1.10;;;18.30;99.90;;;;;;5038444;28;20037;-89
2021/08/09 08:10:36;;;;;;;2.80;1.10;;;18.50;99.90;;;;;;5038489;28;20033;-89
2021/08/09 08:13:01;;;;;;;2.88;0.98;;;18.60;99.90;;;;;;5038205;28;20067;-89
2021/08/09 08:15:27;;;;;;;3.95;1.13;;;18.80;99.90;;;;;;5038082;28;20473;-88
2021/08/09 08:17:53;;;;;;;7.20;1.00;;;18.90;99.90;;;;;;5037957;28;20021;-88
2021/08/09 08:20:21;;;;;;;3.28;1.00;;;19.10;99.90;;;;;;5038360;28;20041;-89
2021/08/09 08:22:47;;;;;;;2.50;0.82;;;19.20;99.90;;;;;;5056178;28;20550;-89
2021/08/09 08:25:12;;;;;;;4.18;1.20;;;19.20;99.90;;;;;;5056073;28;20051;-88
2021/08/09 08:27:38;;;;;;;1.73;0.80;;;19.30;99.90;;;;;;5038102;28;20469;-88
2021/08/09 08:30:06;;;;;;;4.70;0.90;;;19.30;99.90;;;;;;5038123;28;20032;-89
2021/08/09 08:32:32;;;;;;;4.70;0.90;;;19.40;99.90;;;;;;5038039;28;20400;-90
2021/08/09 08:34:59;;;;;;;2.78;0.82;;;19.40;99.90;;;;;;5037794;28;20125;-88
2021/08/09 08:37:28;;;;;;;5.32;1.02;;;19.50;99.90;;;;;;5037675;28;20033;-89
2021/08/09 08:39:54;;;;;;;2.10;0.68;;;19.80;99.90;;;;;;5050163;28;20065;-91
2021/08/09 08:42:20;;;;;;;2.90;0.95;;;19.90;99.90;;;;;;5018212;28;20519;-89
2021/08/09 08:44:47;;;;;;;1.63;0.77;;;19.90;99.90;;;;;;5018018;28;20037;-88
2021/08/09 08:47:18;;;;;;;3.63;0.90;;;19.90;99.90;;;;;;5017872;28;20029;-88
2021/08/09 08:49:44;;;;;;;3.08;0.73;;;20.10;99.90;;;;;;5017961;28;20053;-89
2021/08/09 08:52:12;;;;;;;2.08;0.80;;;20.20;99.90;;;;;;5018071;28;20481;-88
2021/08/09 08:54:41;;;;;;;4.13;0.98;;;20.30;99.90;;;;;;5017892;28;20026;-88
2021/08/09 08:57:39;;;;;;;2.63;0.90;;;20.30;99.90;;;;;;5017642;28;20084;-90
2021/08/09 09:00:05;;;;;;;1.75;0.70;;;20.50;99.90;;;;;;4995212;28;20445;-88
2021/08/09 09:02:33;;;;;;;2.67;1.05;;;20.80;99.90;;;;;;5017443;28;20499;-88
2021/08/09 09:05:30;;;;;;;3.30;0.70;;;20.90;99.90;;;;;;5017249;28;20033;-87
2021/08/09 09:07:56;;;;;;;3.70;1.08;;;20.80;99.90;;;;;;5016703;28;20397;-87
2021/08/09 09:10:24;;;;;;;5.35;1.10;;;20.50;99.90;;;;;;5017537;28;20029;-88
2021/08/09 09:13:15;;;;;;;4.88;0.95;;;20.70;99.90;;;;;;5017649;28;20032;-88
2021/08/09 09:16:08;;;;;;;2.65;0.70;;;20.90;99.90;;;;;;5035649;28;20036;-89
2021/08/09 09:18:59;;;;;;;2.55;0.77;;;20.90;99.90;;;;;;5033840;28;20041;-89
2021/08/09 09:21:35;;;;;;;4.85;0.90;;;21.10;99.90;;;;;;5017827;28;20346;-88
2021/08/09 09:24:16;;;;;;;3.30;1.10;;;21.50;99.90;;;;;;5017176;28;20031;-87
2021/08/09 09:26:44;;;;;;;8.10;1.27;;;21.80;99.90;;;;;;5017088;28;20119;-88
2021/08/09 09:29:10;;;;;;;4.15;0.90;;;21.90;99.90;;;;;;5017013;28;20436;-88
2021/08/09 09:31:37;;;;;;;6.25;0.90;;;22.10;99.90;;;;;;5035084;28;20029;-89
2021/08/09 09:34:10;;;;;;;3.65;1.42;;;22.20;99.90;;;;;;5018779;28;20481;-88
2021/08/09 09:36:52;;;;;;;3.53;0.90;;;22.50;99.90;;;;;;5018424;28;20091;-88
2021/08/09 09:39:30;;;;;;;3.50;0.90;;;22.60;99.90;;;;;;5036932;28;20022;-88
2021/08/09 09:41:57;;;;;;;2.55;1.02;;;22.70;99.90;;;;;;5017754;28;20034;-89
2021/08/09 09:44:24;;;;;;;3.28;0.80;;;22.50;99.90;;;;;;5017032;28;20021;-88
2021/08/09 09:46:50;;;;;;;4.00;1.23;;;22.40;99.90;;;;;;5016868;28;20032;-88
2021/08/09 09:49:35;;;;;;;2.38;0.88;;;22.50;99.90;;;;;;5016692;28;20120;-88
2021/08/09 09:52:00;;;;;;;1.90;0.93;;;22.40;99.90;;;;;;5034654;28;20037;-88
2021/08/09 09:54:27;;;;;;;3.63;0.88;;;22.30;99.90;;;;;;5016713;28;20025;-87
2021/08/09 09:56:54;;;;;;;5.93;1.13;;;22.30;99.90;;;;;;5016637;28;20032;-87
2021/08/09 09:59:22;;;;;;;2.63;0.85;;;22.00;99.90;;;;;;5016506;28;20482;-88
2021/08/09 10:01:50;;;;;;;1.83;0.70;;;21.70;99.90;;;;;;5016424;28;20022;-88
2021/08/09 10:04:15;;;;;;;6.70;1.08;;;22.10;99.90;;;;;;5016351;28;20028;-88
2021/08/09 10:06:42;;;;;;;4.40;0.90;;;22.40;99.90;;;;;;5016547;28;20025;-90
2021/08/09 10:09:10;;;;;;;5.57;1.08;;;22.00;99.90;;;;;;5016445;28;20030;-88
2021/08/09 10:11:40;;;;;;;3.67;0.85;;;21.60;99.90;;;;;;5015601;28;20072;-87
2021/08/09 10:14:07;;;;;;;4.72;0.90;;;21.40;99.90;;;;;;5016289;28;20025;-88
2021/08/09 10:16:34;;;;;;;3.53;1.13;;;21.20;99.90;;;;;;5016209;28;20029;-88
2021/08/09 10:19:01;;;;;;;2.85;0.98;;;21.10;99.90;;;;;;5016327;28;20018;-88
2021/08/09 10:21:32;;;;;;;3.10;0.82;;;21.10;99.90;;;;;;5016279;28;20060;-87
2021/08/09 10:23:59;;;;;;;4.57;1.10;;;21.20;99.90;;;;;;5016063;28;20025;-87
2021/08/09 10:26:30;;;;;;;1.90;0.85;;;21.20;99.90;;;;;;5016113;28;20121;-89
2021/08/09 10:28:55;;;;;;;3.60;1.10;;;21.20;99.90;;;;;;5016225;28;20099;-89
2021/08/09 10:31:30;;;;;;;2.70;0.70;;;21.40;99.90;;;;;;5016162;28;20025;-88
2021/08/09 10:34:00;;;;;;;4.28;1.20;;;21.50;99.90;;;;;;5016046;28;20099;-89
2021/08/09 10:36:26;;;;;;;3.67;0.88;;;21.60;99.90;;;;;;5016030;28;20026;-88
2021/08/09 10:38:54;;;;;;;3.67;0.75;;;21.60;99.90;;;;;;4999639;28;20060;-88
2021/08/09 10:41:23;;;;;;;3.22;0.90;;;22.10;99.90;;;;;;5032764;28;20045;-89
2021/08/09 10:44:07;;;;;;;3.00;0.90;;;23.10;99.90;;;;;;5035760;28;20361;-89
2021/08/09 10:46:41;;;;;;;3.05;0.90;;;23.30;99.90;;;;;;5053794;28;20107;-88
2021/08/09 10:49:08;;;;;;;3.17;0.93;;;23.80;99.90;;;;;;5035535;28;20078;-89
2021/08/09 10:51:52;;;;;;;2.38;0.80;;;24.20;99.90;;;;;;5053353;28;20025;-87
2021/08/09 10:54:25;;;;;;;2.30;0.90;;;24.60;99.90;;;;;;5035484;28;20024;-88
2021/08/09 10:56:51;;;;;;;4.03;1.00;;;24.90;99.90;;;;;;5036005;28;20468;-88
2021/08/09 10:59:39;;;;;;;2.90;0.90;;;25.20;99.90;;;;;;5035418;28;20066;-88
2021/08/09 11:02:13;;;;;;;6.40;0.90;;;25.50;99.90;;;;;;5035350;28;20017;-89
2021/08/09 11:04:39;;;;;;;;;;;25.40;99.90;;;;;;5036101;28;20021;-89
2021/08/09 11:07:23;;;;;;;2.97;0.80;;;25.80;99.90;;;;;;5055400;28;19927;-88
2021/08/09 11:09:48;;;;;;;2.43;0.70;;;25.10;99.90;;;;;;5037723;28;20025;-88
2021/08/09 11:12:19;;;;;;;3.00;0.98;;;25.50;99.40;;;;;;5037877;28;20560;-88
2021/08/09 11:15:00;;;;;;;3.92;1.00;;;25.80;99.90;;;;;;5037001;28;20091;-87
2021/08/09 11:17:31;;;;;;;5.15;1.05;;;26.00;99.20;;;;;;5037609;28;20036;-89
2021/08/09 11:20:14;;;;;;;4.07;0.70;;;26.40;99.30;;;;;;5037426;28;20557;-89
2021/08/09 11:22:42;;;;;;;4.03;0.80;;;26.80;98.20;;;;;;5041023;28;20048;-86
2021/08/09 11:25:41;;;;;;;3.67;0.80;;;26.50;97.10;;;;;;5042735;28;20074;-87
2021/08/09 11:28:09;;;;;;;1.95;0.90;;;26.50;96.60;;;;;;5041436;28;20388;-88
2021/08/09 11:30:40;;;;;;;2.22;0.80;;;26.40;97.00;;;;;;5058953;28;20025;-89
2021/08/09 11:33:08;;;;;;;3.40;1.10;;;26.80;96.30;;;;;;5059381;28;20033;-89
2021/08/09 11:35:44;;;;;;;2.38;0.90;;;26.80;96.30;;;;;;5058828;28;20110;-87
2021/08/09 11:38:11;;;;;;;3.55;0.70;;;26.80;94.80;;;;;;5041664;28;20021;-90
2021/08/09 11:40:44;;;;;;;3.92;0.90;;;26.30;95.00;;;;;;5041141;28;20079;-89
2021/08/09 11:43:12;;;;;;;2.20;0.75;;;26.10;95.00;;;;;;5040027;28;20025;-90
2021/08/09 11:45:38;;;;;;;4.97;0.90;;;26.10;95.60;;;;;;5042790;28;20591;-89
2021/08/09 11:48:06;;;;;;;3.00;0.70;;;26.20;94.40;;;;;;5042921;28;20025;-89
2021/08/09 11:50:41;;;;;;;2.78;0.90;;;26.70;94.00;;;;;;5043564;28;20511;-89
2021/08/09 11:53:09;;;;;;;2.30;0.90;;;26.60;93.80;;;;;;5043020;28;20127;-89
2021/08/09 11:55:36;;;;;;;2.17;0.90;;;26.90;94.10;;;;;;5042179;28;20075;-88
2021/08/09 11:58:02;;;;;;;3.70;0.82;;;27.20;92.40;;;;;;5041630;28;20025;-88
2021/08/09 12:00:40;;;;;;;5.63;1.17;;;27.60;93.30;;;;;;5040973;28;20032;-90
2021/08/09 12:03:17;;;;;;;2.58;1.10;;;27.50;92.60;;;;;;5040622;28;20017;-89
2021/08/09 12:05:44;;;;;;;2.10;0.73;;;27.50;90.80;;;;;;5041431;28;20029;-86
2021/08/09 12:08:10;;;;;;;1.60;0.65;;;27.70;91.90;;;;;;5040153;28;20034;-88
2021/08/09 12:10:37;;;;;;;3.85;0.98;;;28.10;90.50;;;;;;5039835;28;20090;-88
2021/08/09 12:13:20;;;;;;;3.08;0.80;;;28.30;90.70;;;;;;5039643;28;20074;-88
2021/08/09 12:16:05;;;;;;;4.13;1.08;;;28.50;89.30;;;;;;5039649;28;20055;-88
2021/08/09 12:18:31;;;;;;;4.78;0.80;;;28.40;87.50;;;;;;5039851;28;20500;-87
2021/08/09 12:21:12;;;;;;;3.60;1.10;;;28.30;89.40;;;;;;5040214;28;20064;-89
2021/08/09 12:23:53;;;;;;;2.97;0.80;;;28.00;87.50;;;;;;5040358;28;20021;-89
2021/08/09 12:26:32;;;;;;;3.55;0.90;;;27.30;88.50;;;;;;5040105;28;20053;-88
2021/08/09 12:29:02;;;;;;;4.82;1.23;;;27.50;89.90;;;;;;5039707;28;20020;-88
2021/08/09 12:31:35;;;;;;;3.35;1.00;;;27.60;85.80;;;;;;5039727;28;20036;-89
2021/08/09 12:34:05;;;;;;;2.70;0.80;;;27.40;87.40;;;;;;5039143;28;20029;-87
2021/08/09 12:36:32;;;;;;;1.63;0.70;;;27.90;89.60;;;;;;5039508;28;20037;-85
2021/08/09 12:38:58;;;;;;;4.53;0.90;;;28.50;88.80;;;;;;5040780;28;20017;-89
2021/08/09 12:41:29;;;;;;;3.70;1.10;;;28.70;88.90;;;;;;5040108;28;20132;-87
2021/08/09 12:43:56;;;;;;;3.85;0.95;;;28.90;87.80;;;;;;5039314;28;20075;-87
2021/08/09 12:46:22;;;;;;;5.22;1.05;;;28.40;84.90;;;;;;5039671;28;20492;-88
2021/08/09 12:48:50;;;;;;;3.53;0.88;;;28.40;89.50;;;;;;5022616;28;20033;-84
2021/08/09 12:51:16;;;;;;;2.05;0.82;;;28.30;84.40;;;;;;5039014;28;20033;-88
2021/08/09 12:53:42;;;;;;;2.38;1.00;;;27.40;86.20;;;;;;5038985;28;20059;-87